BEL4MYR DIAP-EBBR
Flight info
| Callsign | BEL4MYR |
|---|---|
| Flight time | N/A |
| Altitude | 39000 |
| Route | TAVAL DCT TUSEK DCT SN DCT ARLEX DCT NUVOS DCT KIMRI DCT TUREB/N0474F400 DCT EKDOM DCT NAVKI/N0477F390 DCT IPUTA DCT SERAG DCT ERNEG DCT BIDOM DCT INAMA DCT TMS/N0470F400 DCT ATCHA DCT GHA/N0468F390 DCT BERIA DCT KAHIL DCT BSA DCT BJA DCT DOLIS/N0467F400 DCT NEVIX DCT ROVOT DCT MTL DCT LL702 DCT CLM DCT KOPOR DCT SOMIL DCT OBIVA DCT ARVOL |
| Aircraft | A333/H-SDE3GHIJ2J3J5M1RVWXY/LB2D1 |
Departure
| Time | N/A |
|---|---|
| Airport | Félix-Houphouët-Boigny International Airport (DIAP) |
Arrival
| Time | 2026-05-05 12:21 |
|---|---|
| Airport | Brussels Airport (EBBR) |
| Time | Latitude | Longitude | Altitude | Speed | Heading |
|---|---|---|---|---|---|
| 2026-05-05 11:12 | 43.96068 | 4.85341 | 38937 ft | 492 kts | 350° |
| 2026-05-05 11:12 | 43.99477 | 4.84922 | 38936 ft | 492 kts | 350° |
| 2026-05-05 11:13 | 44.06270 | 4.84090 | 38934 ft | 493 kts | 351° |
| 2026-05-05 11:13 | 44.13106 | 4.83250 | 38933 ft | 494 kts | 351° |
| 2026-05-05 11:14 | 44.19955 | 4.82409 | 38936 ft | 493 kts | 351° |
| 2026-05-05 11:14 | 44.26801 | 4.81564 | 38934 ft | 493 kts | 351° |
| 2026-05-05 11:15 | 44.33644 | 4.80715 | 38938 ft | 494 kts | 351° |
| 2026-05-05 11:15 | 44.40488 | 4.79865 | 38934 ft | 494 kts | 351° |
| 2026-05-05 11:16 | 44.47336 | 4.79014 | 38936 ft | 494 kts | 351° |
| 2026-05-05 11:16 | 44.54186 | 4.78221 | 38934 ft | 496 kts | 355° |
| 2026-05-05 11:17 | 44.61105 | 4.78639 | 38937 ft | 499 kts | 0° |
| 2026-05-05 11:17 | 44.68032 | 4.79421 | 38938 ft | 500 kts | 1° |
| 2026-05-05 11:18 | 44.74961 | 4.80279 | 38933 ft | 499 kts | 1° |
| 2026-05-05 11:18 | 44.81882 | 4.81133 | 38933 ft | 499 kts | 1° |
| 2026-05-05 11:19 | 44.88802 | 4.81973 | 38934 ft | 499 kts | 1° |
| 2026-05-05 11:19 | 44.95725 | 4.82807 | 38929 ft | 499 kts | 1° |
| 2026-05-05 11:20 | 45.02647 | 4.83644 | 38938 ft | 499 kts | 1° |
| 2026-05-05 11:20 | 45.09567 | 4.84476 | 38930 ft | 499 kts | 1° |
| 2026-05-05 11:21 | 45.16479 | 4.85315 | 38929 ft | 499 kts | 2° |
| 2026-05-05 11:21 | 45.23395 | 4.86158 | 38918 ft | 499 kts | 2° |
| 2026-05-05 11:22 | 45.30317 | 4.87002 | 38915 ft | 499 kts | 2° |
| 2026-05-05 11:22 | 45.37184 | 4.87846 | 38918 ft | 498 kts | 2° |
| 2026-05-05 11:23 | 45.44092 | 4.88695 | 38905 ft | 499 kts | 2° |
| 2026-05-05 11:23 | 45.49892 | 4.89407 | 38906 ft | 498 kts | 2° |
| 2026-05-05 11:24 | 45.56748 | 4.90249 | 38907 ft | 498 kts | 2° |
| 2026-05-05 11:24 | 45.63665 | 4.91103 | 38904 ft | 498 kts | 2° |
| 2026-05-05 11:25 | 45.70566 | 4.91956 | 38911 ft | 498 kts | 2° |
| 2026-05-05 11:25 | 45.77471 | 4.92813 | 38917 ft | 498 kts | 2° |
| 2026-05-05 11:26 | 45.84379 | 4.93192 | 38903 ft | 493 kts | 351° |
| 2026-05-05 11:26 | 45.90962 | 4.90899 | 38904 ft | 484 kts | 335° |
| 2026-05-05 11:27 | 45.97199 | 4.87307 | 38905 ft | 483 kts | 333° |
| 2026-05-05 11:27 | 46.03369 | 4.83477 | 38907 ft | 483 kts | 333° |
| 2026-05-05 11:28 | 46.09543 | 4.79631 | 38896 ft | 484 kts | 333° |
| 2026-05-05 11:28 | 46.15754 | 4.75801 | 38898 ft | 485 kts | 333° |
| 2026-05-05 11:29 | 46.21971 | 4.71982 | 38897 ft | 486 kts | 333° |
| 2026-05-05 11:29 | 46.28184 | 4.68159 | 38893 ft | 486 kts | 333° |
| 2026-05-05 11:30 | 46.34400 | 4.64325 | 38889 ft | 485 kts | 333° |
| 2026-05-05 11:30 | 46.40610 | 4.60480 | 38890 ft | 485 kts | 333° |
| 2026-05-05 11:31 | 46.46823 | 4.56622 | 38886 ft | 486 kts | 333° |
| 2026-05-05 11:31 | 46.53040 | 4.52753 | 38878 ft | 486 kts | 333° |
| 2026-05-05 11:32 | 46.59249 | 4.48880 | 38880 ft | 486 kts | 333° |
| 2026-05-05 11:32 | 46.65461 | 4.44996 | 38880 ft | 485 kts | 333° |
| 2026-05-05 11:33 | 46.71629 | 4.41129 | 38881 ft | 486 kts | 333° |
| 2026-05-05 11:33 | 46.77838 | 4.37222 | 38879 ft | 486 kts | 333° |
| 2026-05-05 11:34 | 46.84041 | 4.33315 | 38876 ft | 485 kts | 333° |
| 2026-05-05 11:34 | 46.90242 | 4.29401 | 38868 ft | 485 kts | 334° |
| 2026-05-05 11:35 | 46.96443 | 4.25472 | 38873 ft | 485 kts | 334° |
| 2026-05-05 11:35 | 47.02642 | 4.21534 | 38872 ft | 485 kts | 334° |
| 2026-05-05 11:36 | 47.08838 | 4.17588 | 38867 ft | 485 kts | 334° |
| 2026-05-05 11:36 | 47.15022 | 4.13638 | 38872 ft | 485 kts | 334° |
| 2026-05-05 11:37 | 47.21213 | 4.09669 | 38868 ft | 485 kts | 334° |
| 2026-05-05 11:37 | 47.27413 | 4.05702 | 38864 ft | 486 kts | 334° |
| 2026-05-05 11:38 | 47.33609 | 4.01723 | 38858 ft | 486 kts | 334° |
| 2026-05-05 11:38 | 47.39806 | 3.97722 | 38850 ft | 487 kts | 334° |
| 2026-05-05 11:39 | 47.46015 | 3.93703 | 38850 ft | 487 kts | 334° |
| 2026-05-05 11:39 | 47.52196 | 3.89696 | 38850 ft | 487 kts | 334° |
| 2026-05-05 11:40 | 47.58397 | 3.85668 | 38851 ft | 487 kts | 334° |
| 2026-05-05 11:40 | 47.64598 | 3.81631 | 38846 ft | 487 kts | 334° |
| 2026-05-05 11:41 | 47.70800 | 3.77578 | 38840 ft | 487 kts | 334° |
| 2026-05-05 11:41 | 47.77012 | 3.73510 | 38839 ft | 488 kts | 334° |
| 2026-05-05 11:42 | 47.83215 | 3.69436 | 38841 ft | 486 kts | 334° |
| 2026-05-05 11:42 | 47.89405 | 3.65356 | 38841 ft | 487 kts | 334° |
| 2026-05-05 11:43 | 47.95565 | 3.61290 | 38834 ft | 487 kts | 334° |
| 2026-05-05 11:43 | 48.01755 | 3.57197 | 38832 ft | 487 kts | 334° |
| 2026-05-05 11:44 | 48.07957 | 3.53085 | 38832 ft | 487 kts | 334° |
| 2026-05-05 11:44 | 48.14137 | 3.48976 | 38833 ft | 486 kts | 334° |
| 2026-05-05 11:45 | 48.20321 | 3.44852 | 38832 ft | 486 kts | 334° |
| 2026-05-05 11:45 | 48.26499 | 3.40718 | 38834 ft | 487 kts | 334° |
| 2026-05-05 11:46 | 48.32678 | 3.36574 | 38831 ft | 487 kts | 334° |
| 2026-05-05 11:46 | 48.38858 | 3.32417 | 38831 ft | 486 kts | 334° |
| 2026-05-05 11:47 | 48.45027 | 3.28255 | 38831 ft | 486 kts | 334° |
| 2026-05-05 11:47 | 48.51215 | 3.24085 | 38832 ft | 486 kts | 334° |
| 2026-05-05 11:48 | 48.60457 | 3.17812 | 38831 ft | 485 kts | 334° |
| 2026-05-05 11:48 | 48.66582 | 3.13648 | 38840 ft | 486 kts | 334° |
| 2026-05-05 11:49 | 48.72748 | 3.09436 | 38841 ft | 486 kts | 333° |
| 2026-05-05 11:49 | 48.78905 | 3.05217 | 38841 ft | 484 kts | 333° |
| 2026-05-05 11:50 | 48.84993 | 3.00834 | 38842 ft | 484 kts | 329° |
| 2026-05-05 11:50 | 48.90876 | 2.95851 | 38842 ft | 483 kts | 328° |
| 2026-05-05 11:51 | 48.93780 | 2.93322 | 38635 ft | 482 kts | 327° |
| 2026-05-05 11:51 | 48.96686 | 2.90768 | 38400 ft | 482 kts | 327° |
| 2026-05-05 11:51 | 48.99600 | 2.88203 | 38159 ft | 483 kts | 327° |
| 2026-05-05 11:51 | 49.02509 | 2.85642 | 37902 ft | 483 kts | 327° |
| 2026-05-05 11:52 | 49.05416 | 2.83083 | 37647 ft | 483 kts | 327° |
| 2026-05-05 11:52 | 49.08332 | 2.80514 | 37399 ft | 485 kts | 327° |
| 2026-05-05 11:52 | 49.11254 | 2.77932 | 37149 ft | 486 kts | 327° |
| 2026-05-05 11:52 | 49.14178 | 2.75345 | 36895 ft | 486 kts | 327° |
| 2026-05-05 11:53 | 49.17070 | 2.72784 | 36651 ft | 486 kts | 327° |
| 2026-05-05 11:53 | 49.20003 | 2.70186 | 36395 ft | 487 kts | 327° |
| 2026-05-05 11:53 | 49.22931 | 2.67591 | 36153 ft | 489 kts | 327° |
| 2026-05-05 11:53 | 49.25895 | 2.64961 | 35897 ft | 492 kts | 327° |
| 2026-05-05 11:54 | 49.28867 | 2.62318 | 35643 ft | 497 kts | 327° |
| 2026-05-05 11:54 | 49.31860 | 2.59654 | 35390 ft | 499 kts | 327° |
| 2026-05-05 11:54 | 49.34814 | 2.57022 | 35136 ft | 500 kts | 327° |
| 2026-05-05 11:54 | 49.37828 | 2.54333 | 34893 ft | 501 kts | 327° |
| 2026-05-05 11:55 | 49.40843 | 2.51639 | 34642 ft | 503 kts | 326° |
| 2026-05-05 11:55 | 49.43877 | 2.48923 | 34391 ft | 504 kts | 326° |
| 2026-05-05 11:55 | 49.46910 | 2.46204 | 34139 ft | 504 kts | 326° |
| 2026-05-05 11:55 | 49.49978 | 2.43554 | 33894 ft | 507 kts | 331° |
| 2026-05-05 11:56 | 49.53215 | 2.41518 | 33643 ft | 511 kts | 338° |
| 2026-05-05 11:56 | 49.56636 | 2.39771 | 33386 ft | 511 kts | 340° |
| 2026-05-05 11:56 | 49.60036 | 2.38156 | 33134 ft | 512 kts | 341° |
| 2026-05-05 11:56 | 49.63455 | 2.36600 | 32879 ft | 512 kts | 341° |
| 2026-05-05 11:57 | 49.66833 | 2.35088 | 32641 ft | 512 kts | 342° |
| 2026-05-05 11:57 | 49.70300 | 2.33539 | 32377 ft | 512 kts | 342° |
| 2026-05-05 11:57 | 49.73787 | 2.32333 | 32124 ft | 515 kts | 351° |
| 2026-05-05 11:57 | 49.77316 | 2.31985 | 31875 ft | 516 kts | 1° |
| 2026-05-05 11:58 | 49.80885 | 2.32618 | 31621 ft | 516 kts | 13° |
| 2026-05-05 11:58 | 49.84369 | 2.33976 | 31370 ft | 516 kts | 16° |
| 2026-05-05 11:58 | 49.87807 | 2.35532 | 31118 ft | 515 kts | 18° |
| 2026-05-05 11:58 | 49.91224 | 2.37196 | 30859 ft | 515 kts | 18° |
| 2026-05-05 11:59 | 49.94639 | 2.38907 | 30613 ft | 515 kts | 19° |
| 2026-05-05 11:59 | 49.98029 | 2.40614 | 30362 ft | 514 kts | 19° |
| 2026-05-05 11:59 | 50.01459 | 2.42331 | 30115 ft | 512 kts | 18° |
| 2026-05-05 11:59 | 50.04836 | 2.44008 | 29862 ft | 509 kts | 18° |
| 2026-05-05 12:00 | 50.08198 | 2.45666 | 29610 ft | 506 kts | 18° |
| 2026-05-05 12:00 | 50.11509 | 2.47297 | 29365 ft | 504 kts | 18° |
| 2026-05-05 12:00 | 50.14802 | 2.49131 | 29107 ft | 501 kts | 27° |
| 2026-05-05 12:00 | 50.17736 | 2.51970 | 28757 ft | 491 kts | 40° |
| 2026-05-05 12:01 | 50.20085 | 2.55719 | 28177 ft | 481 kts | 56° |
| 2026-05-05 12:01 | 50.21896 | 2.60070 | 27555 ft | 474 kts | 62° |
| 2026-05-05 12:01 | 50.23548 | 2.64489 | 26959 ft | 469 kts | 62° |
| 2026-05-05 12:01 | 50.25163 | 2.68879 | 26359 ft | 463 kts | 62° |
| 2026-05-05 12:02 | 50.26762 | 2.73227 | 25764 ft | 458 kts | 62° |
| 2026-05-05 12:02 | 50.28339 | 2.77514 | 25169 ft | 453 kts | 62° |
| 2026-05-05 12:02 | 50.29901 | 2.81763 | 24567 ft | 448 kts | 62° |
| 2026-05-05 12:02 | 50.31444 | 2.85961 | 23983 ft | 442 kts | 62° |
| 2026-05-05 12:03 | 50.32969 | 2.90114 | 23394 ft | 437 kts | 62° |
| 2026-05-05 12:03 | 50.34472 | 2.94209 | 22818 ft | 431 kts | 62° |
| 2026-05-05 12:03 | 50.35957 | 2.98264 | 22236 ft | 426 kts | 61° |
| 2026-05-05 12:03 | 50.37421 | 3.02270 | 21664 ft | 421 kts | 62° |
| 2026-05-05 12:04 | 50.38863 | 3.06220 | 21098 ft | 417 kts | 61° |
| 2026-05-05 12:04 | 50.40290 | 3.10132 | 20533 ft | 412 kts | 61° |
| 2026-05-05 12:04 | 50.41702 | 3.14011 | 19976 ft | 408 kts | 61° |
| 2026-05-05 12:04 | 50.43099 | 3.17856 | 19424 ft | 404 kts | 61° |
| 2026-05-05 12:05 | 50.44480 | 3.21664 | 18875 ft | 399 kts | 61° |
| 2026-05-05 12:05 | 50.45848 | 3.25439 | 18331 ft | 395 kts | 61° |
| 2026-05-05 12:05 | 50.47196 | 3.29164 | 17805 ft | 391 kts | 61° |
| 2026-05-05 12:05 | 50.48533 | 3.32863 | 17270 ft | 387 kts | 61° |
| 2026-05-05 12:06 | 50.49855 | 3.36528 | 16752 ft | 383 kts | 61° |
| 2026-05-05 12:06 | 50.51158 | 3.40142 | 16220 ft | 379 kts | 61° |
| 2026-05-05 12:06 | 50.52454 | 3.43742 | 15709 ft | 375 kts | 61° |
| 2026-05-05 12:06 | 50.53755 | 3.47282 | 15178 ft | 372 kts | 58° |
| 2026-05-05 12:07 | 50.54776 | 3.49421 | 14848 ft | 369 kts | 48° |
| 2026-05-05 12:07 | 50.56699 | 3.52052 | 14367 ft | 365 kts | 37° |
| 2026-05-05 12:07 | 50.58763 | 3.54351 | 13847 ft | 362 kts | 35° |
| 2026-05-05 12:07 | 50.61519 | 3.57340 | 13169 ft | 357 kts | 35° |
| 2026-05-05 12:08 | 50.62872 | 3.58811 | 12838 ft | 355 kts | 35° |
| 2026-05-05 12:08 | 50.64887 | 3.61013 | 12338 ft | 352 kts | 35° |
| 2026-05-05 12:08 | 50.66888 | 3.63208 | 11836 ft | 348 kts | 36° |
| 2026-05-05 12:08 | 50.68867 | 3.65386 | 11332 ft | 345 kts | 36° |
| 2026-05-05 12:09 | 50.70818 | 3.67537 | 10852 ft | 341 kts | 36° |
| 2026-05-05 12:09 | 50.72740 | 3.69659 | 10554 ft | 331 kts | 36° |
| 2026-05-05 12:09 | 50.74579 | 3.71691 | 10490 ft | 313 kts | 36° |
| 2026-05-05 12:09 | 50.76318 | 3.73620 | 10384 ft | 299 kts | 36° |
| 2026-05-05 12:10 | 50.77985 | 3.75475 | 10244 ft | 287 kts | 36° |
| 2026-05-05 12:10 | 50.79594 | 3.77265 | 10114 ft | 279 kts | 36° |
| 2026-05-05 12:10 | 50.81153 | 3.79004 | 9985 ft | 271 kts | 36° |
| 2026-05-05 12:10 | 50.82709 | 3.80742 | 9913 ft | 281 kts | 36° |
| 2026-05-05 12:11 | 50.84339 | 3.82563 | 9901 ft | 289 kts | 36° |
| 2026-05-05 12:11 | 50.85989 | 3.84406 | 9903 ft | 291 kts | 36° |
| 2026-05-05 12:11 | 50.87557 | 3.86419 | 9904 ft | 290 kts | 48° |
| 2026-05-05 12:11 | 50.88759 | 3.88985 | 9908 ft | 290 kts | 57° |
| 2026-05-05 12:12 | 50.89818 | 3.91696 | 9877 ft | 291 kts | 59° |
| 2026-05-05 12:12 | 50.90864 | 3.94437 | 9604 ft | 290 kts | 59° |
| 2026-05-05 12:12 | 50.91859 | 3.97210 | 9143 ft | 291 kts | 66° |
| 2026-05-05 12:12 | 50.92319 | 4.00303 | 8677 ft | 290 kts | 90° |
| 2026-05-05 12:13 | 50.91998 | 4.03431 | 8311 ft | 286 kts | 105° |
| 2026-05-05 12:13 | 50.91455 | 4.06455 | 7873 ft | 285 kts | 107° |
| 2026-05-05 12:13 | 50.90888 | 4.09459 | 7459 ft | 284 kts | 107° |
| 2026-05-05 12:13 | 50.90327 | 4.12454 | 7074 ft | 281 kts | 106° |
| 2026-05-05 12:14 | 50.89782 | 4.15394 | 6940 ft | 275 kts | 106° |
| 2026-05-05 12:14 | 50.89253 | 4.18263 | 6902 ft | 276 kts | 106° |
| 2026-05-05 12:14 | 50.88718 | 4.21179 | 6725 ft | 276 kts | 106° |
| 2026-05-05 12:14 | 50.88182 | 4.24095 | 6434 ft | 272 kts | 106° |
| 2026-05-05 12:15 | 50.87659 | 4.26941 | 6305 ft | 260 kts | 106° |
| 2026-05-05 12:15 | 50.87172 | 4.29598 | 6191 ft | 250 kts | 106° |
| 2026-05-05 12:15 | 50.86706 | 4.32232 | 6083 ft | 239 kts | 102° |
| 2026-05-05 12:15 | 50.86768 | 4.34747 | 5987 ft | 227 kts | 73° |
| 2026-05-05 12:16 | 50.87337 | 4.36977 | 5885 ft | 208 kts | 65° |
| 2026-05-05 12:16 | 50.87924 | 4.38937 | 5708 ft | 188 kts | 65° |
| 2026-05-05 12:16 | 50.88474 | 4.40764 | 5363 ft | 181 kts | 65° |
| 2026-05-05 12:16 | 50.89006 | 4.42553 | 4952 ft | 179 kts | 65° |
| 2026-05-05 12:17 | 50.89556 | 4.44296 | 4572 ft | 172 kts | 53° |
| 2026-05-05 12:17 | 50.90563 | 4.44976 | 4297 ft | 160 kts | 354° |
| 2026-05-05 12:17 | 50.91548 | 4.44386 | 4085 ft | 149 kts | 324° |
| 2026-05-05 12:17 | 50.92144 | 4.43123 | 3819 ft | 145 kts | 296° |
| 2026-05-05 12:18 | 50.92410 | 4.41559 | 3403 ft | 152 kts | 278° |
| 2026-05-05 12:18 | 50.92397 | 4.39851 | 2946 ft | 159 kts | 264° |
| 2026-05-05 12:18 | 50.91989 | 4.38175 | 2468 ft | 166 kts | 234° |
| 2026-05-05 12:18 | 50.91076 | 4.37228 | 2209 ft | 155 kts | 188° |
| 2026-05-05 12:19 | 50.90019 | 4.37638 | 1649 ft | 163 kts | 142° |
| 2026-05-05 12:19 | 50.89229 | 4.38942 | 1162 ft | 165 kts | 125° |
| 2026-05-05 12:19 | 50.88657 | 4.40391 | 1023 ft | 145 kts | 109° |
| 2026-05-05 12:19 | 50.88607 | 4.41850 | 842 ft | 127 kts | 68° |
| 2026-05-05 12:20 | 50.89025 | 4.43024 | 633 ft | 121 kts | 55° |
| 2026-05-05 12:20 | 50.89479 | 4.44215 | 460 ft | 128 kts | 59° |
| 2026-05-05 12:20 | 50.89857 | 4.45472 | 251 ft | 128 kts | 64° |
| 2026-05-05 12:20 | 50.90211 | 4.46683 | 153 ft | 114 kts | 64° |
| 2026-05-05 12:21 | 50.90506 | 4.47683 | 144 ft | 85 kts | 65° |
| 2026-05-05 12:21 | 50.90645 | 4.48182 | 142 ft | 11 kts | 68° |
| 2026-05-05 12:21 | 50.90655 | 4.48265 | 142 ft | 6 kts | 92° |
| 2026-05-05 12:21 | 50.90640 | 4.48342 | 143 ft | 8 kts | 116° |
| 2026-05-05 12:22 | 50.90610 | 4.48429 | 143 ft | 11 kts | 119° |
| 2026-05-05 12:22 | 50.90565 | 4.48551 | 139 ft | 16 kts | 120° |
| 2026-05-05 12:22 | 50.90535 | 4.48635 | 138 ft | 0 kts | 123° |
| 2026-05-05 12:23 | 50.90512 | 4.48668 | 138 ft | 7 kts | 138° |
| 2026-05-05 12:23 | 50.90468 | 4.48716 | 138 ft | 7 kts | 153° |
| 2026-05-05 12:23 | 50.90460 | 4.48723 | 138 ft | 0 kts | 152° |